Baltimore/Washington International Thurgood Marshal Airport
KBWI : now visible

Airfield :











YOU CAN JOIN US ON...

 
LOGIN :

Register | Disclaimer

   EN    FR    IT 

 









Legend :    VFR   Marginal VFR   IFR   Intensive IFR   Very Intensive IFR
Visi :
Ceiling :
>= 8 km
>= 3000ft
5 to 8 km
1000 to 3000 ft
1500m to 5 km
500 to 1000 ft
800 to 1500m
200 to 500 ft
< 800m
< 200 ft
Symbols :   Thunderstorms  Fog  Heavy snow  Heavy precipitations  Wind > 20 kt







- Airport Elevation : 146 ft
- IATA code : BWI


KBWI - Baltimore/Washington International Thurgood Marshal

CURRENT METAR :
  • 221754Z 32009G17KT 10SM SCT044 SCT085 SCT160 SCT250 22/10 A3008 RMK AO2 SLP184 T02170100 10217 20144 58016

EXPIRED METARs :
  • 221654Z 35011G18KT 10SM FEW038 SCT070 BKN160 BKN250 19/09 A3010 RMK AO2 SLP191 T01940089
  • 221554Z 33010G17KT 280V360 10SM BKN038 BKN085 BKN160 BKN250 17/09 A3012 RMK AO2 SLP199 T01720089

TAF KBWI
Valid from the 22 at 18:00 until the 24 at 00:00 UTC


221720Z 2218/2324 33010G20KT P6SM SCT045 BKN060
FM222000 33010G20KT P6SM FEW050 SCT070
FM230000 32006KT P6SM FEW060 FEW250
FM231500 25004KT P6SM FEW120 FEW250
FM232000 19007KT P6SM FEW140 SCT200
KZDC FIR / North America



MET'MAP, your aeronautical weather chart ! - Copyright ORBIFLY December 2007 - Disclaimer

ORBIFLY MET'MAP TEAM :

Programming & Development : Alexandra Zaïnal
Concept & Development : Baudouin d'Aumeries
Co-Development & Prog : Marc-Olivier Méhu
Technical & hardware support : Manuel Goepfert

Contact : metmap@orbifly.com




SOURCES & CREDITS :

   NOAA       Earth
Advisory